Time;durP1;ratioP1;P1;durP2;ratioP2;P2;SDS_P1;SDS_P2;PMS_P1;PMS_P2;Temp;Humidity;BMP_temperature;BMP_pressure;BME280_temperature;BME280_humidity;BME280_pressure;Samples;Min_cycle;Max_cycle;Signal;HPM_P1;HPM_P2
2021/08/28 00:01:18;;;;;;;11.18;4.38;;;;;;;;;;5057015;28;20086;-71
2021/08/28 00:03:44;;;;;;;11.10;4.53;;;;;;;;;;5024378;28;20299;-71
2021/08/28 00:06:11;;;;;;;12.43;4.32;;;;;;;;;;5029556;28;20076;-71
2021/08/28 00:08:37;;;;;;;8.10;4.07;;;;;;;;;;5029042;28;20072;-71
2021/08/28 00:11:03;;;;;;;14.05;3.58;;;;;;;;;;5025956;28;20630;-71
2021/08/28 00:13:29;;;;;;;8.65;3.60;;;;;;;;;;5043097;28;20080;-71
2021/08/28 00:15:55;;;;;;;11.80;4.28;;;;;;;;;;5040304;28;20070;-71
2021/08/28 00:18:21;;;;;;;8.35;3.90;;;;;;;;;;5042971;28;20052;-71
2021/08/28 00:20:48;;;;;;;8.88;3.70;;;;;;;;;;5025312;28;20040;-71
2021/08/28 00:23:14;;;;;;;12.27;3.80;;;;;;;;;;5027664;28;20045;-71
2021/08/28 00:25:40;;;;;;;10.88;4.18;;;;;;;;;;5044392;28;20566;-71
2021/08/28 00:28:06;;;;;;;10.32;4.20;;;;;;;;;;5051516;28;20097;-71
2021/08/28 00:30:33;;;;;;;10.90;4.43;;;;;;;;;;5024342;28;20757;-71
2021/08/28 00:33:10;;;;;;;14.70;4.88;;;;;;;;;;5038441;28;20064;-71
2021/08/28 00:35:36;;;;;;;19.33;5.32;;;;;;;;;;5047687;28;20033;-71
2021/08/28 00:38:02;;;;;;;16.52;4.82;;;;;;;;;;5025175;28;20140;-71
2021/08/28 00:40:28;;;;;;;15.40;4.57;;;;;;;;;;5047628;28;20467;-71
2021/08/28 00:42:55;;;;;;;14.88;4.90;;;;;;;;;;5045187;28;20041;-71
2021/08/28 00:45:25;;;;;;;13.88;4.25;;;;;;;;;;5044481;28;20827;-71
2021/08/28 00:47:54;;;;;;;12.70;5.10;;;;;;;;;;5026183;28;20041;-71
2021/08/28 00:50:21;;;;;;;17.70;5.20;;;;;;;;;;5058984;28;20041;-71
2021/08/28 00:52:47;;;;;;;18.60;5.22;;;;;;;;;;5055226;28;20048;-71
2021/08/28 00:55:14;;;;;;;13.13;4.70;;;;;;;;;;5043030;28;20053;-71
2021/08/28 00:57:40;;;;;;;16.85;5.32;;;;;;;;;;5045460;28;20053;-71
2021/08/28 01:00:07;;;;;;;10.98;4.07;;;;;;;;;;5038509;28;20037;-71
2021/08/28 01:02:35;;;;;;;18.08;5.03;;;;;;;;;;5025224;28;20049;-71
2021/08/28 01:05:07;;;;;;;11.65;5.20;;;;;;;;;;5025235;28;20424;-71
2021/08/28 01:07:38;;;;;;;12.07;4.93;;;;;;;;;;5026137;28;20060;-71
2021/08/28 01:10:05;;;;;;;13.13;5.63;;;;;;;;;;5037054;28;20048;-71
2021/08/28 01:12:36;;;;;;;17.83;5.35;;;;;;;;;;5023908;28;20053;-71
2021/08/28 01:15:03;;;;;;;13.43;5.25;;;;;;;;;;5022166;28;20728;-71
2021/08/28 01:17:31;;;;;;;12.23;4.90;;;;;;;;;;5041115;28;20060;-71
2021/08/28 01:20:02;;;;;;;13.23;5.25;;;;;;;;;;5043518;28;20536;-71
2021/08/28 01:22:28;;;;;;;13.50;4.95;;;;;;;;;;5029483;28;20048;-71
2021/08/28 01:24:55;;;;;;;14.20;4.72;;;;;;;;;;5046374;28;20388;-71
2021/08/28 01:27:39;;;;;;;10.65;4.72;;;;;;;;;;5056743;28;20368;-71
2021/08/28 01:30:06;;;;;;;18.95;4.70;;;;;;;;;;5027832;28;20451;-71
2021/08/28 01:32:32;;;;;;;12.48;5.15;;;;;;;;;;5023188;28;20073;-71
2021/08/28 01:34:59;;;;;;;11.95;5.10;;;;;;;;;;5054453;28;20055;-71
2021/08/28 01:37:26;;;;;;;14.90;5.10;;;;;;;;;;5032072;28;20065;-71
2021/08/28 01:39:54;;;;;;;13.02;4.70;;;;;;;;;;5026512;28;20043;-71
2021/08/28 01:42:20;;;;;;;12.85;4.95;;;;;;;;;;5034836;28;20045;-71
2021/08/28 01:44:48;;;;;;;14.30;4.57;;;;;;;;;;5062379;28;20061;-71
2021/08/28 01:47:15;;;;;;;10.50;4.70;;;;;;;;;;5049975;28;20167;-71
2021/08/28 01:49:41;;;;;;;13.13;5.00;;;;;;;;;;5045010;28;20403;-71
2021/08/28 01:52:08;;;;;;;11.50;4.50;;;;;;;;;;5059185;28;20049;-71
2021/08/28 01:54:34;;;;;;;10.73;5.05;;;;;;;;;;5031813;28;20604;-71
2021/08/28 01:57:01;;;;;;;13.88;5.50;;;;;;;;;;5021808;28;20048;-71
2021/08/28 01:59:30;;;;;;;10.48;4.90;;;;;;;;;;5029187;28;20262;-71
2021/08/28 02:01:56;;;;;;;13.80;5.03;;;;;;;;;;5037520;28;20068;-71
2021/08/28 02:04:22;;;;;;;13.65;5.32;;;;;;;;;;5062009;28;20041;-71
2021/08/28 02:06:48;;;;;;;15.63;5.68;;;;;;;;;;5028415;28;20048;-71
2021/08/28 02:09:15;;;;;;;20.65;5.85;;;;;;;;;;5029366;28;20132;-71
2021/08/28 02:11:46;;;;;;;14.60;5.20;;;;;;;;;;5033021;28;20171;-71
2021/08/28 02:14:15;;;;;;;16.08;4.68;;;;;;;;;;5025970;28;20115;-71
2021/08/28 02:16:42;;;;;;;15.57;4.82;;;;;;;;;;5046757;28;20034;-71
2021/08/28 02:19:12;;;;;;;12.15;4.78;;;;;;;;;;5043436;28;20955;-71
2021/08/28 02:21:39;;;;;;;12.57;4.70;;;;;;;;;;5047494;28;20515;-71
2021/08/28 02:24:07;;;;;;;13.35;4.85;;;;;;;;;;5045446;28;20171;-71
2021/08/28 02:26:36;;;;;;;13.30;4.80;;;;;;;;;;5050286;28;20043;-70
2021/08/28 02:29:04;;;;;;;11.93;4.57;;;;;;;;;;5062869;28;20088;-71
2021/08/28 02:31:34;;;;;;;12.63;4.00;;;;;;;;;;5027731;28;20378;-71
2021/08/28 02:34:01;;;;;;;13.88;4.35;;;;;;;;;;5041537;28;20183;-71
2021/08/28 02:36:28;;;;;;;13.68;4.03;;;;;;;;;;5044277;28;20041;-71
2021/08/28 02:38:54;;;;;;;14.85;4.78;;;;;;;;;;5043902;28;20056;-71
2021/08/28 02:41:21;;;;;;;12.48;5.20;;;;;;;;;;5025404;28;20049;-71
2021/08/28 02:43:48;;;;;;;16.20;4.85;;;;;;;;;;5030367;28;20041;-71
2021/08/28 02:46:15;;;;;;;13.05;4.53;;;;;;;;;;5027229;28;20430;-71
2021/08/28 02:48:42;;;;;;;10.93;4.50;;;;;;;;;;5033003;28;20139;-71
2021/08/28 02:51:10;;;;;;;11.05;4.60;;;;;;;;;;5026823;28;20050;-71
2021/08/28 02:53:40;;;;;;;19.60;4.68;;;;;;;;;;5025826;28;20049;-71
2021/08/28 02:56:07;;;;;;;12.65;4.13;;;;;;;;;;5053031;28;20045;-71
2021/08/28 02:58:33;;;;;;;11.38;3.83;;;;;;;;;;5029698;28;20049;-71
2021/08/28 03:01:00;;;;;;;14.55;4.43;;;;;;;;;;5027240;28;20866;-71
2021/08/28 03:03:27;;;;;;;15.65;4.78;;;;;;;;;;5038385;28;20380;-71
2021/08/28 03:05:53;;;;;;;14.65;5.35;;;;;;;;;;5031187;28;20036;-71
2021/08/28 03:08:20;;;;;;;12.48;5.05;;;;;;;;;;5044138;28;20239;-71
2021/08/28 03:10:49;;;;;;;14.77;4.63;;;;;;;;;;5043012;28;20399;-71
2021/08/28 03:13:15;;;;;;;17.27;5.57;;;;;;;;;;5046959;28;20076;-71
2021/08/28 03:15:43;;;;;;;16.30;5.45;;;;;;;;;;5028285;28;20048;-71
2021/08/28 03:18:11;;;;;;;11.68;4.78;;;;;;;;;;5045828;28;20402;-71
2021/08/28 03:20:38;;;;;;;12.40;5.07;;;;;;;;;;5049991;28;20041;-71
2021/08/28 03:23:04;;;;;;;15.50;5.28;;;;;;;;;;5028496;28;20056;-71
2021/08/28 03:25:31;;;;;;;13.95;5.85;;;;;;;;;;5027875;28;20077;-71
2021/08/28 03:27:57;;;;;;;21.10;5.95;;;;;;;;;;5047462;28;20404;-71
2021/08/28 03:30:24;;;;;;;17.48;6.00;;;;;;;;;;5023998;28;20193;-71
2021/08/28 03:32:51;;;;;;;16.60;5.63;;;;;;;;;;5019725;28;20091;-71
2021/08/28 03:35:17;;;;;;;17.10;5.85;;;;;;;;;;5041573;28;20060;-71
2021/08/28 03:37:43;;;;;;;16.70;5.43;;;;;;;;;;5044941;28;20129;-71
2021/08/28 03:40:10;;;;;;;20.33;6.13;;;;;;;;;;5020924;28;20055;-71
2021/08/28 03:42:37;;;;;;;15.98;6.47;;;;;;;;;;5041701;28;20077;-71
2021/08/28 03:45:04;;;;;;;16.52;6.05;;;;;;;;;;5046512;28;20095;-71
2021/08/28 03:47:32;;;;;;;23.42;6.90;;;;;;;;;;5047003;28;20043;-71
2021/08/28 03:49:58;;;;;;;18.75;5.85;;;;;;;;;;5036426;28;20060;-71
2021/08/28 03:52:24;;;;;;;20.88;6.03;;;;;;;;;;5046523;28;20050;-71
2021/08/28 03:54:51;;;;;;;19.38;6.65;;;;;;;;;;5039058;28;20085;-71
2021/08/28 03:57:17;;;;;;;16.25;5.60;;;;;;;;;;5053193;28;20079;-71
2021/08/28 03:59:43;;;;;;;16.27;5.60;;;;;;;;;;5031689;28;20044;-71
2021/08/28 04:02:09;;;;;;;24.42;5.65;;;;;;;;;;5025024;28;20087;-71
2021/08/28 04:04:35;;;;;;;14.70;5.22;;;;;;;;;;5026797;28;20803;-71
2021/08/28 04:07:02;;;;;;;15.55;5.47;;;;;;;;;;5062021;28;20053;-71
2021/08/28 04:09:28;;;;;;;14.95;6.45;;;;;;;;;;5042613;28;20152;-71
2021/08/28 04:11:54;;;;;;;17.70;6.18;;;;;;;;;;5045925;28;20033;-71
2021/08/28 04:14:20;;;;;;;18.58;5.72;;;;;;;;;;5043121;28;20109;-71
2021/08/28 04:16:46;;;;;;;19.13;6.50;;;;;;;;;;5024252;28;20056;-71
2021/08/28 04:19:13;;;;;;;13.73;5.90;;;;;;;;;;5026736;28;20041;-71
2021/08/28 04:21:39;;;;;;;14.32;5.63;;;;;;;;;;5045329;28;20125;-71
2021/08/28 04:24:05;;;;;;;18.25;6.00;;;;;;;;;;5026646;28;20048;-71
2021/08/28 04:26:31;;;;;;;17.65;6.07;;;;;;;;;;5025653;28;20055;-71
2021/08/28 04:28:58;;;;;;;20.30;6.47;;;;;;;;;;5049381;28;20056;-71
2021/08/28 04:31:24;;;;;;;23.65;6.32;;;;;;;;;;5031031;28;20445;-71
2021/08/28 04:33:50;;;;;;;13.68;5.80;;;;;;;;;;5025192;28;20064;-71
2021/08/28 04:36:16;;;;;;;17.25;5.80;;;;;;;;;;5020587;28;20377;-71
2021/08/28 04:38:43;;;;;;;14.48;5.40;;;;;;;;;;5038676;28;20060;-71
2021/08/28 04:41:09;;;;;;;16.98;6.03;;;;;;;;;;5024688;28;20052;-71
2021/08/28 04:43:35;;;;;;;16.50;5.40;;;;;;;;;;5016709;28;20053;-71
2021/08/28 04:46:01;;;;;;;19.20;5.65;;;;;;;;;;5037468;28;20037;-71
2021/08/28 04:48:27;;;;;;;13.30;5.40;;;;;;;;;;5006246;28;20045;-71
2021/08/28 04:50:54;;;;;;;15.10;5.22;;;;;;;;;;5028530;28;20048;-71
2021/08/28 04:53:20;;;;;;;15.13;5.47;;;;;;;;;;5043262;28;20111;-71
2021/08/28 04:55:46;;;;;;;14.52;5.00;;;;;;;;;;5032842;28;20510;-71
2021/08/28 04:58:13;;;;;;;18.23;5.72;;;;;;;;;;5019315;28;20045;-71
2021/08/28 05:00:39;;;;;;;13.93;5.03;;;;;;;;;;5026255;28;20052;-71
2021/08/28 05:03:05;;;;;;;16.83;4.75;;;;;;;;;;5047073;28;20040;-71
2021/08/28 05:05:31;;;;;;;15.85;5.45;;;;;;;;;;5037897;28;20175;-71
2021/08/28 05:07:57;;;;;;;17.83;5.20;;;;;;;;;;5062415;28;20041;-71
2021/08/28 05:10:24;;;;;;;12.80;4.97;;;;;;;;;;5063065;28;20080;-71
2021/08/28 05:12:50;;;;;;;14.60;4.97;;;;;;;;;;5043375;28;20048;-71
2021/08/28 05:15:16;;;;;;;14.07;5.53;;;;;;;;;;5028151;28;20053;-71
2021/08/28 05:17:43;;;;;;;16.85;5.47;;;;;;;;;;5058854;28;20052;-71
2021/08/28 05:20:09;;;;;;;17.92;5.05;;;;;;;;;;5032376;28;20071;-71
2021/08/28 05:22:35;;;;;;;18.75;4.65;;;;;;;;;;5052372;28;20044;-71
2021/08/28 05:25:02;;;;;;;15.98;5.13;;;;;;;;;;5050289;28;20119;-71
2021/08/28 05:27:28;;;;;;;16.33;4.95;;;;;;;;;;5060110;28;20045;-71
2021/08/28 05:29:55;;;;;;;16.15;5.72;;;;;;;;;;5032405;28;20063;-71
2021/08/28 05:32:22;;;;;;;17.27;5.18;;;;;;;;;;5014760;28;20052;-72
2021/08/28 05:34:49;;;;;;;18.35;5.00;;;;;;;;;;5050988;28;20036;-71
2021/08/28 05:37:15;;;;;;;12.35;4.75;;;;;;;;;;5065760;28;20056;-71
2021/08/28 05:39:41;;;;;;;14.10;5.45;;;;;;;;;;5065550;28;20045;-71
2021/08/28 05:42:07;;;;;;;12.77;4.88;;;;;;;;;;5050839;28;20120;-71
2021/08/28 05:44:34;;;;;;;17.45;5.57;;;;;;;;;;5033052;28;20044;-71
2021/08/28 05:47:00;;;;;;;13.85;4.68;;;;;;;;;;5054209;28;20431;-70
2021/08/28 05:49:26;;;;;;;22.65;5.13;;;;;;;;;;5049692;28;20045;-71
2021/08/28 05:51:52;;;;;;;15.98;5.30;;;;;;;;;;5058381;28;20119;-71
2021/08/28 05:54:18;;;;;;;19.17;4.68;;;;;;;;;;5051380;28;20088;-71
2021/08/28 05:56:45;;;;;;;12.77;5.10;;;;;;;;;;5055536;28;20507;-72
2021/08/28 05:59:11;;;;;;;17.38;6.15;;;;;;;;;;5051533;28;20072;-72
2021/08/28 06:01:37;;;;;;;13.95;5.60;;;;;;;;;;5031720;28;20437;-71
2021/08/28 06:04:03;;;;;;;25.45;5.97;;;;;;;;;;5052337;28;20053;-71
2021/08/28 06:06:29;;;;;;;14.18;5.50;;;;;;;;;;5056735;28;20404;-71
2021/08/28 06:08:56;;;;;;;15.52;4.95;;;;;;;;;;5028525;28;20049;-71
2021/08/28 06:11:25;;;;;;;18.63;5.68;;;;;;;;;;5037307;28;20431;-71
2021/08/28 06:13:53;;;;;;;18.73;5.68;;;;;;;;;;5046081;28;20045;-71
2021/08/28 06:16:19;;;;;;;24.30;5.55;;;;;;;;;;5057104;28;20053;-71
2021/08/28 06:18:45;;;;;;;18.42;5.30;;;;;;;;;;5051114;28;20098;-71
2021/08/28 06:21:11;;;;;;;16.92;5.53;;;;;;;;;;5049160;28;20045;-71
2021/08/28 06:23:38;;;;;;;18.35;5.75;;;;;;;;;;5029077;28;20037;-71
2021/08/28 06:26:04;;;;;;;14.25;5.65;;;;;;;;;;5044434;28;20079;-71
2021/08/28 06:28:30;;;;;;;21.27;5.72;;;;;;;;;;5055726;28;20128;-71
2021/08/28 06:30:56;;;;;;;15.82;5.40;;;;;;;;;;5054399;28;20044;-71
2021/08/28 06:33:23;;;;;;;17.15;6.20;;;;;;;;;;5060769;28;20576;-71
2021/08/28 06:35:49;;;;;;;16.52;5.63;;;;;;;;;;5046835;28;20068;-71
2021/08/28 06:38:15;;;;;;;16.70;5.68;;;;;;;;;;5034276;28;20059;-71
2021/08/28 06:40:41;;;;;;;13.23;5.35;;;;;;;;;;5057401;28;20052;-71
2021/08/28 06:43:07;;;;;;;15.57;5.40;;;;;;;;;;5059113;28;20044;-71
2021/08/28 06:45:34;;;;;;;19.67;5.10;;;;;;;;;;5034850;28;20052;-71
2021/08/28 06:48:01;;;;;;;11.95;4.63;;;;;;;;;;5038210;28;20499;-71
2021/08/28 06:50:27;;;;;;;14.88;5.68;;;;;;;;;;5052670;28;20041;-71
2021/08/28 06:52:53;;;;;;;13.93;4.70;;;;;;;;;;5056613;28;20063;-71
2021/08/28 06:55:20;;;;;;;16.25;5.13;;;;;;;;;;5032036;28;20439;-71
2021/08/28 06:57:46;;;;;;;13.00;5.38;;;;;;;;;;5053346;28;20139;-71
2021/08/28 07:00:13;;;;;;;13.02;4.95;;;;;;;;;;5055740;28;20037;-71
2021/08/28 07:02:41;;;;;;;12.80;4.70;;;;;;;;;;5052664;28;20048;-72
2021/08/28 07:05:07;;;;;;;19.25;5.90;;;;;;;;;;5038070;28;20049;-72
2021/08/28 07:07:34;;;;;;;13.45;4.70;;;;;;;;;;5040441;28;20460;-72
2021/08/28 07:10:01;;;;;;;15.48;4.93;;;;;;;;;;5067580;28;20045;-72
2021/08/28 07:12:27;;;;;;;16.23;5.68;;;;;;;;;;5054331;28;20404;-71
2021/08/28 07:14:53;;;;;;;12.45;4.05;;;;;;;;;;5053431;28;20393;-71
2021/08/28 07:17:19;;;;;;;13.68;4.82;;;;;;;;;;5054567;28;20048;-71
2021/08/28 07:19:45;;;;;;;26.20;4.63;;;;;;;;;;5034792;28;20124;-71
2021/08/28 07:22:12;;;;;;;13.98;4.72;;;;;;;;;;5053036;28;20115;-71
2021/08/28 07:24:38;;;;;;;17.95;5.05;;;;;;;;;;5034444;28;20072;-72
2021/08/28 07:27:04;;;;;;;9.45;4.88;;;;;;;;;;5038038;28;20056;-71
2021/08/28 07:29:31;;;;;;;14.38;4.55;;;;;;;;;;5053991;28;20106;-71
2021/08/28 07:31:57;;;;;;;15.90;5.40;;;;;;;;;;5056289;28;20101;-71
2021/08/28 07:34:24;;;;;;;11.20;4.55;;;;;;;;;;5034587;28;20124;-71
2021/08/28 07:36:50;;;;;;;10.32;4.35;;;;;;;;;;5052663;28;20517;-71
2021/08/28 07:39:16;;;;;;;9.40;4.30;;;;;;;;;;5059421;28;20064;-71
2021/08/28 07:41:42;;;;;;;13.05;4.30;;;;;;;;;;5048661;28;20480;-71
2021/08/28 07:44:08;;;;;;;9.27;4.03;;;;;;;;;;5053862;28;20123;-71
2021/08/28 07:46:35;;;;;;;10.82;4.03;;;;;;;;;;5052534;28;20172;-71
2021/08/28 07:49:01;;;;;;;7.75;3.75;;;;;;;;;;5055926;28;20052;-71
2021/08/28 07:51:27;;;;;;;8.90;3.50;;;;;;;;;;5042570;28;20041;-71
2021/08/28 07:53:53;;;;;;;12.93;4.10;;;;;;;;;;5034274;28;20045;-71
2021/08/28 07:56:19;;;;;;;6.70;3.38;;;;;;;;;;5052137;28;20103;-71
2021/08/28 07:58:46;;;;;;;10.07;3.58;;;;;;;;;;5034513;28;20160;-71
2021/08/28 08:01:13;;;;;;;7.57;3.45;;;;;;;;;;5051558;28;20115;-71
2021/08/28 08:03:39;;;;;;;7.97;3.42;;;;;;;;;;5053951;28;20041;-71
2021/08/28 08:06:05;;;;;;;13.15;4.38;;;;;;;;;;5035279;28;20064;-71
2021/08/28 08:08:32;;;;;;;7.40;2.95;;;;;;;;;;5032747;28;20040;-71
2021/08/28 08:10:58;;;;;;;10.45;4.28;;;;;;;;;;5055528;28;20044;-71
2021/08/28 08:13:24;;;;;;;10.48;3.67;;;;;;;;;;5034098;28;20048;-71
2021/08/28 08:15:50;;;;;;;9.85;3.60;;;;;;;;;;5051152;28;20033;-71
2021/08/28 08:18:16;;;;;;;7.85;3.45;;;;;;;;;;5053319;28;20056;-71
2021/08/28 08:20:42;;;;;;;8.05;3.95;;;;;;;;;;5037853;28;20570;-71
2021/08/28 08:23:09;;;;;;;9.88;3.63;;;;;;;;;;5033104;28;20071;-71
2021/08/28 08:25:35;;;;;;;7.65;3.05;;;;;;;;;;5048698;28;20045;-71
2021/08/28 08:28:01;;;;;;;9.13;3.15;;;;;;;;;;5058145;28;20033;-72
2021/08/28 08:30:27;;;;;;;7.97;3.38;;;;;;;;;;5033328;28;20045;-71
2021/08/28 08:32:53;;;;;;;11.07;3.83;;;;;;;;;;5054272;28;20044;-71
2021/08/28 08:35:20;;;;;;;9.60;3.03;;;;;;;;;;5036968;28;20075;-71
2021/08/28 08:37:46;;;;;;;10.93;3.25;;;;;;;;;;5047094;28;20095;-71
2021/08/28 08:40:13;;;;;;;12.18;3.65;;;;;;;;;;5039796;28;20130;-71
2021/08/28 08:42:40;;;;;;;7.28;2.63;;;;;;;;;;5066658;28;20106;-71
2021/08/28 08:45:07;;;;;;;8.95;3.22;;;;;;;;;;5036348;28;20099;-71
2021/08/28 08:47:35;;;;;;;7.35;2.90;;;;;;;;;;5051438;28;20098;-71
2021/08/28 08:50:02;;;;;;;10.27;3.60;;;;;;;;;;5035409;28;20127;-71
2021/08/28 08:52:30;;;;;;;11.13;3.50;;;;;;;;;;5063203;28;20489;-71
2021/08/28 08:54:56;;;;;;;10.48;3.05;;;;;;;;;;5051383;28;20041;-71
2021/08/28 08:57:23;;;;;;;7.55;2.75;;;;;;;;;;5030708;28;20041;-71
2021/08/28 08:59:49;;;;;;;10.35;3.15;;;;;;;;;;5051473;28;20059;-71
2021/08/28 09:02:15;;;;;;;14.27;3.60;;;;;;;;;;5044869;28;20106;-71
2021/08/28 09:04:41;;;;;;;11.65;3.28;;;;;;;;;;5033609;28;20060;-71
2021/08/28 09:07:12;;;;;;;10.45;3.13;;;;;;;;;;5051156;28;20120;-71
2021/08/28 09:09:39;;;;;;;6.72;3.03;;;;;;;;;;5049169;28;20178;-71
2021/08/28 09:12:06;;;;;;;9.38;3.20;;;;;;;;;;5053575;28;20127;-71
2021/08/28 09:14:33;;;;;;;11.45;3.20;;;;;;;;;;5032617;28;20496;-71
2021/08/28 09:17:13;;;;;;;9.48;3.03;;;;;;;;;;5051554;28;20063;-71
2021/08/28 09:19:40;;;;;;;10.57;2.90;;;;;;;;;;5051257;28;20036;-71
2021/08/28 09:22:07;;;;;;;14.75;3.05;;;;;;;;;;5034532;28;20052;-71
2021/08/28 09:24:44;;;;;;;14.05;3.50;;;;;;;;;;5026310;28;20214;-71
2021/08/28 09:27:11;;;;;;;9.65;2.80;;;;;;;;;;5029909;28;20156;-71
2021/08/28 09:29:42;;;;;;;7.90;3.05;;;;;;;;;;5034301;28;20045;-71
2021/08/28 09:32:09;;;;;;;14.60;3.05;;;;;;;;;;5059595;28;20497;-71
2021/08/28 09:34:35;;;;;;;9.82;2.60;;;;;;;;;;5032118;28;20048;-71
2021/08/28 09:37:04;;;;;;;9.85;2.65;;;;;;;;;;5032759;28;20045;-72
2021/08/28 09:39:44;;;;;;;7.82;2.42;;;;;;;;;;5041933;28;20056;-71
2021/08/28 09:42:17;;;;;;;8.20;2.90;;;;;;;;;;5032581;28;20041;-71
2021/08/28 09:44:44;;;;;;;6.22;3.05;;;;;;;;;;5058123;28;20121;-71
2021/08/28 09:47:11;;;;;;;9.77;2.63;;;;;;;;;;5034262;28;20037;-71
2021/08/28 09:49:39;;;;;;;10.80;3.33;;;;;;;;;;5050448;28;20053;-71
2021/08/28 09:52:05;;;;;;;9.43;2.78;;;;;;;;;;5053291;28;20049;-72
2021/08/28 09:54:31;;;;;;;8.07;3.15;;;;;;;;;;5031790;28;20506;-71
2021/08/28 09:57:02;;;;;;;7.35;2.58;;;;;;;;;;5051406;28;20041;-72
2021/08/28 09:59:28;;;;;;;7.30;2.40;;;;;;;;;;5051257;28;20040;-71
2021/08/28 10:01:55;;;;;;;9.68;2.22;;;;;;;;;;5034694;28;20139;-71
2021/08/28 10:04:21;;;;;;;8.70;2.75;;;;;;;;;;5015031;28;20441;-71
2021/08/28 10:06:48;;;;;;;6.80;2.22;;;;;;;;;;5049974;28;20116;-71
2021/08/28 10:09:15;;;;;;;8.73;2.70;;;;;;;;;;5049483;28;20509;-72
2021/08/28 10:11:49;;;;;;;9.73;2.42;;;;;;;;;;5051327;28;20465;-71
2021/08/28 10:14:16;;;;;;;6.45;2.55;;;;;;;;;;5039760;28;20135;-71
2021/08/28 10:16:45;;;;;;;13.52;2.67;;;;;;;;;;5031903;28;20067;-71
2021/08/28 10:19:16;;;;;;;8.48;2.67;;;;;;;;;;5031815;28;20055;-71
2021/08/28 10:21:44;;;;;;;10.00;2.78;;;;;;;;;;5037074;28;20045;-71
2021/08/28 10:24:10;;;;;;;10.45;2.95;;;;;;;;;;5049157;28;20044;-73
2021/08/28 10:26:36;;;;;;;7.63;2.58;;;;;;;;;;5032429;28;20041;-72
2021/08/28 10:29:04;;;;;;;11.13;2.33;;;;;;;;;;5047185;28;20045;-72
2021/08/28 10:31:30;;;;;;;10.55;2.95;;;;;;;;;;5031627;28;20073;-72
2021/08/28 10:33:57;;;;;;;8.05;2.40;;;;;;;;;;5043040;28;20056;-73
2021/08/28 10:36:23;;;;;;;11.13;2.80;;;;;;;;;;5028855;28;20046;-72
2021/08/28 10:38:50;;;;;;;9.77;3.08;;;;;;;;;;5013732;28;20488;-72
2021/08/28 10:41:18;;;;;;;6.00;2.05;;;;;;;;;;5030992;28;20037;-72
2021/08/28 10:43:46;;;;;;;13.15;2.85;;;;;;;;;;5029065;28;20073;-73
2021/08/28 10:46:19;;;;;;;9.90;2.10;;;;;;;;;;5034974;28;20053;-72
2021/08/28 10:48:53;;;;;;;8.73;3.17;;;;;;;;;;5036288;28;20072;-72
2021/08/28 10:51:24;;;;;;;11.73;2.97;;;;;;;;;;5051552;28;20061;-72
2021/08/28 10:53:53;;;;;;;9.00;2.58;;;;;;;;;;5054716;28;20116;-72
2021/08/28 10:56:19;;;;;;;9.25;2.90;;;;;;;;;;5017096;28;20038;-72
2021/08/28 10:58:45;;;;;;;7.55;2.20;;;;;;;;;;5029300;28;20106;-72
2021/08/28 11:01:11;;;;;;;7.45;2.10;;;;;;;;;;5047609;28;20459;-72
2021/08/28 11:03:38;;;;;;;8.88;2.95;;;;;;;;;;5053108;28;20040;-72
2021/08/28 11:06:12;;;;;;;7.05;2.53;;;;;;;;;;5053335;28;20049;-72
2021/08/28 11:08:46;;;;;;;14.50;3.10;;;;;;;;;;5033790;28;20431;-72
2021/08/28 11:11:18;;;;;;;13.18;2.58;;;;;;;;;;5065319;28;20484;-72
2021/08/28 11:13:54;;;;;;;9.55;2.80;;;;;;;;;;5034524;28;20045;-73
2021/08/28 11:16:42;;;;;;;7.50;2.67;;;;;;;;;;5051454;28;20155;-74
2021/08/28 11:19:09;;;;;;;10.98;2.63;;;;;;;;;;5051012;28;20396;-74
2021/08/28 11:21:42;;;;;;;6.82;2.53;;;;;;;;;;5033535;28;20431;-75
2021/08/28 11:24:12;;;;;;;7.50;2.53;;;;;;;;;;5036028;28;20091;-75
2021/08/28 11:26:39;;;;;;;7.53;2.47;;;;;;;;;;5051347;28;20123;-75
2021/08/28 11:29:23;;;;;;;8.43;3.33;;;;;;;;;;5052003;28;20095;-74
2021/08/28 11:32:07;;;;;;;8.77;2.72;;;;;;;;;;5051554;28;20045;-75
2021/08/28 11:34:33;;;;;;;9.10;2.85;;;;;;;;;;5044724;28;20037;-74
2021/08/28 11:37:18;;;;;;;11.88;3.63;;;;;;;;;;5033258;28;20092;-74
2021/08/28 11:39:45;;;;;;;8.98;2.90;;;;;;;;;;5051080;28;20041;-75
2021/08/28 11:42:11;;;;;;;10.23;2.90;;;;;;;;;;5033837;28;20496;-75
2021/08/28 11:44:38;;;;;;;8.32;2.55;;;;;;;;;;5032308;28;20076;-75
2021/08/28 11:47:05;;;;;;;10.45;3.08;;;;;;;;;;5032835;28;20051;-75
2021/08/28 11:49:32;;;;;;;7.32;2.53;;;;;;;;;;5051657;28;20048;-75
2021/08/28 11:52:00;;;;;;;5.65;2.33;;;;;;;;;;5051551;28;20060;-75
2021/08/28 11:54:26;;;;;;;6.53;1.95;;;;;;;;;;5033460;28;20217;-75
2021/08/28 11:56:57;;;;;;;7.05;2.00;;;;;;;;;;5033785;28;20040;-75
2021/08/28 11:59:33;;;;;;;10.60;2.25;;;;;;;;;;5051158;28;20079;-75
2021/08/28 12:02:00;;;;;;;7.43;2.15;;;;;;;;;;5032780;28;20330;-75
2021/08/28 12:04:26;;;;;;;7.22;2.85;;;;;;;;;;5050572;28;20047;-76
2021/08/28 12:06:53;;;;;;;7.07;2.03;;;;;;;;;;5034756;28;20053;-76
2021/08/28 12:09:22;;;;;;;7.38;2.40;;;;;;;;;;5050411;28;20119;-76
2021/08/28 12:11:49;;;;;;;5.07;1.88;;;;;;;;;;5051380;28;20039;-75
2021/08/28 12:14:16;;;;;;;8.52;2.35;;;;;;;;;;5033389;28;20077;-75
2021/08/28 12:16:43;;;;;;;7.95;2.35;;;;;;;;;;5032290;28;20036;-75
2021/08/28 12:19:10;;;;;;;7.70;2.63;;;;;;;;;;5032847;28;20100;-74
2021/08/28 12:21:38;;;;;;;8.88;2.70;;;;;;;;;;5034218;28;20047;-75
2021/08/28 12:24:11;;;;;;;9.05;2.60;;;;;;;;;;5034630;28;20337;-74
2021/08/28 12:26:39;;;;;;;6.40;2.17;;;;;;;;;;5049884;28;20052;-74
2021/08/28 12:29:06;;;;;;;10.80;2.55;;;;;;;;;;5032399;28;20832;-74
2021/08/28 12:31:32;;;;;;;8.90;2.20;;;;;;;;;;5050808;28;20060;-74
2021/08/28 12:34:02;;;;;;;9.18;2.08;;;;;;;;;;5046604;28;20048;-74
2021/08/28 12:36:31;;;;;;;10.48;2.15;;;;;;;;;;5026912;28;20088;-74
2021/08/28 12:39:01;;;;;;;7.20;2.28;;;;;;;;;;5050234;28;20053;-74
2021/08/28 12:41:27;;;;;;;6.88;1.90;;;;;;;;;;5032518;28;20052;-74
2021/08/28 12:43:53;;;;;;;8.35;2.03;;;;;;;;;;5032280;28;20106;-73
2021/08/28 12:46:20;;;;;;;5.45;1.60;;;;;;;;;;5050720;28;20037;-74
2021/08/28 12:49:05;;;;;;;5.93;1.60;;;;;;;;;;5032145;28;20060;-74
2021/08/28 12:51:31;;;;;;;4.55;1.50;;;;;;;;;;5032387;28;20056;-74
2021/08/28 12:53:57;;;;;;;7.32;2.20;;;;;;;;;;5032235;28;20067;-74
2021/08/28 12:56:23;;;;;;;8.80;2.20;;;;;;;;;;5032291;28;20056;-74
2021/08/28 12:58:50;;;;;;;7.85;2.22;;;;;;;;;;5031420;28;20522;-74
2021/08/28 13:01:16;;;;;;;6.13;2.05;;;;;;;;;;5046175;28;20081;-74
2021/08/28 13:03:49;;;;;;;9.48;2.70;;;;;;;;;;5031320;28;20045;-74
2021/08/28 13:06:20;;;;;;;6.30;1.70;;;;;;;;;;5064759;28;20053;-74
2021/08/28 13:08:46;;;;;;;8.82;2.15;;;;;;;;;;5031988;28;20049;-74
2021/08/28 13:11:18;;;;;;;5.80;1.92;;;;;;;;;;5031462;28;20159;-74
2021/08/28 13:13:51;;;;;;;6.63;2.13;;;;;;;;;;5049996;28;20037;-74
2021/08/28 13:16:18;;;;;;;10.88;2.47;;;;;;;;;;5049621;28;20112;-74
2021/08/28 13:18:44;;;;;;;9.80;2.50;;;;;;;;;;5049146;28;20047;-74
2021/08/28 13:21:10;;;;;;;9.98;1.80;;;;;;;;;;5049981;28;20392;-74
2021/08/28 13:23:37;;;;;;;10.38;2.55;;;;;;;;;;5031654;28;20036;-74
2021/08/28 13:26:04;;;;;;;6.97;2.10;;;;;;;;;;5049878;28;20088;-74
2021/08/28 13:28:31;;;;;;;6.45;2.13;;;;;;;;;;5050261;28;20067;-74
2021/08/28 13:31:15;;;;;;;9.00;2.22;;;;;;;;;;5050471;28;20041;-74
2021/08/28 13:33:42;;;;;;;8.48;2.58;;;;;;;;;;5048856;28;20797;-74
2021/08/28 13:36:08;;;;;;;7.05;1.90;;;;;;;;;;5031703;28;20049;-75
2021/08/28 13:38:35;;;;;;;5.53;2.20;;;;;;;;;;5049275;28;20087;-74
2021/08/28 13:41:02;;;;;;;5.57;1.73;;;;;;;;;;5030497;28;20063;-74
2021/08/28 13:43:30;;;;;;;6.80;2.15;;;;;;;;;;5049421;28;20064;-74
2021/08/28 13:45:56;;;;;;;7.55;1.90;;;;;;;;;;5030994;28;20072;-74
2021/08/28 13:48:23;;;;;;;7.05;2.10;;;;;;;;;;5031532;28;20139;-74
2021/08/28 13:50:49;;;;;;;6.18;1.98;;;;;;;;;;5047204;28;20484;-74
2021/08/28 13:53:16;;;;;;;6.97;1.90;;;;;;;;;;5048911;28;20051;-74
2021/08/28 13:55:42;;;;;;;9.43;1.77;;;;;;;;;;5031566;28;20064;-74
2021/08/28 13:58:09;;;;;;;7.38;2.33;;;;;;;;;;5031559;28;20095;-74
2021/08/28 14:00:35;;;;;;;8.40;1.67;;;;;;;;;;5048410;28;20041;-74
2021/08/28 14:03:02;;;;;;;6.72;2.15;;;;;;;;;;5049353;28;20360;-74
2021/08/28 14:05:30;;;;;;;9.55;2.30;;;;;;;;;;5031208;28;20048;-74
2021/08/28 14:07:58;;;;;;;10.07;2.22;;;;;;;;;;5061343;28;20067;-74
2021/08/28 14:10:24;;;;;;;10.18;2.30;;;;;;;;;;5048805;28;20044;-74
2021/08/28 14:12:51;;;;;;;5.97;2.28;;;;;;;;;;5048939;28;20052;-74
2021/08/28 14:15:17;;;;;;;10.82;2.88;;;;;;;;;;5048987;28;20041;-74
2021/08/28 14:17:43;;;;;;;7.70;2.10;;;;;;;;;;5030992;28;20044;-74
2021/08/28 14:20:14;;;;;;;6.53;2.10;;;;;;;;;;5030908;28;20094;-74
2021/08/28 14:22:40;;;;;;;7.47;2.78;;;;;;;;;;5045592;28;20472;-74
2021/08/28 14:25:06;;;;;;;6.88;1.90;;;;;;;;;;5049057;28;20045;-74
2021/08/28 14:27:33;;;;;;;6.88;2.03;;;;;;;;;;5049909;28;20083;-75
2021/08/28 14:29:59;;;;;;;7.45;2.20;;;;;;;;;;5048293;28;20052;-76
2021/08/28 14:32:25;;;;;;;8.75;1.65;;;;;;;;;;5030820;28;20072;-74
2021/08/28 14:34:51;;;;;;;12.50;2.25;;;;;;;;;;5049749;28;20099;-74